Rochester, NY (14602)

9:40 PM EST on February 25, 2017 (GMT -0500)
South Wedge | | Change Station
Active Advisory: High Wind Advisory

Elev 525 ft 43.14 °N, 77.61 °W | Updated 13 seconds ago

Snow
Snow
31.1 °F
Feels Like 26 °F
N
5.0
Wind Variable Wind from West

Today
High -- | Low -- °F
--% Chance of Precip.
Yesterday
High -- | Low -- °F
Precip. -- in
Pressure 29.74 in
Visibility 1.0 miles
Clouds Mostly Cloudy 1000 ft
Mostly Cloudy 3400 ft
Overcast 5000 ft
Windchill 26 °F
Dew Point 27 °F
Humidity 86%
Rainfall 0.35 in
Snow Depth Not available.
6:52 AM 5:54 PM
Waning Crescent, 0% visible
SPECI KROC 260232Z 29014G29KT 1SM -SN BR BKN010 BKN034 OVC050 00/M02 A2974 RMK AO2 PK WND 28032/0219 P0000 T00001017 RVRNO
Pressure 29.74 in
Visibility 1.0 miles
Clouds Mostly Cloudy 1000 ft
Mostly Cloudy 3400 ft
Overcast 5000 ft
Windchill 26 °F
Dew Point 27 °F
Humidity 86%
Rainfall 0.35 in
Snow Depth Not available.
6:52 AM 5:54 PM
Waning Crescent, 0% visible
SPECI KROC 260232Z 29014G29KT 1SM -SN BR BKN010 BKN034 OVC050 00/M02 A2974 RMK AO2 PK WND 28032/0219 P0000 T00001017 RVRNO

Get Your Daily Forecast Email!

Thanks for signing up!

Be on the lookout for a verification email in your inbox.

You'll start receiving the daily forecast at 8 AM.

×

10-Day Weather Forecast

Almanac

Astronomy

Feb. 25, 2017 Rise Set
Actual Time
Civil Twilight
Nautical Twilight
Astronomical Twilight
Moon
Length of Visible Light
Length of Day
Tomorrow will be .
, % of the Moon is Illuminated

Today's Extremes

State Highs State Lows

Community

WunderPhotos

Upload Photos

1,962,540 photos uploaded!

WunderBlog® & News

Nearby

Air Quality

  Air Quality AQ Index Pollutant
Not available.

Snow Depth

Station Depth Elevation

Earthquake Activity

City Distance Mag. Time & Date
Minimum magnitude displayed is 2.5.

Coastal Water Temperatures

Place Temperature

Stations

Nearby Weather Stations

Station Location Temp. Windchill Dew Point Humidity Wind Precip. Elev Updated Type
                   

Watches & Warnings

High Wind Advisory
Issued: 9:25 PM EST Feb. 25, 2017 – National Weather Service

... Wind Advisory is cancelled...

The National Weather Service in Buffalo has cancelled the Wind
Advisory.